Time;durP1;ratioP1;P1;durP2;ratioP2;P2;SDS_P1;SDS_P2;PMS_P1;PMS_P2;Temp;Humidity;BMP_temperature;BMP_pressure;BME280_temperature;BME280_humidity;BME280_pressure;Samples;Min_cycle;Max_cycle;Signal;HPM_P1;HPM_P2
2023/10/26 00:00:09;;;;;;;1.38;0.95;;;;;;;18.17;60.65;99778.03;5024909;28;20049;-36
2023/10/26 00:02:35;;;;;;;1.30;0.80;;;;;;;18.16;60.61;99783.56;5027266;28;20120;-36
2023/10/26 00:05:02;;;;;;;0.90;0.80;;;;;;;18.16;60.30;99784.38;5025264;28;20055;-37
2023/10/26 00:07:29;;;;;;;1.05;0.82;;;;;;;18.15;60.46;99790.78;5027738;28;20037;-37
2023/10/26 00:09:56;;;;;;;1.20;0.70;;;;;;;18.15;60.43;99779.22;5025303;28;20045;-37
2023/10/26 00:12:23;;;;;;;0.75;0.70;;;;;;;18.14;60.57;99788.28;5027321;28;20060;-37
2023/10/26 00:14:50;;;;;;;1.77;1.00;;;;;;;18.13;60.65;99782.09;5029027;28;20437;-37
2023/10/26 00:17:16;;;;;;;1.00;0.90;;;;;;;18.14;60.54;99788.28;5026002;28;20056;-37
2023/10/26 00:19:43;;;;;;;1.33;1.00;;;;;;;18.12;60.62;99788.44;5023817;28;20135;-37
2023/10/26 00:22:09;;;;;;;1.88;1.00;;;;;;;18.12;60.49;99793.81;5027123;28;20049;-37
2023/10/26 00:24:37;;;;;;;0.98;0.90;;;;;;;18.11;60.53;99794.81;5026902;28;20935;-37
2023/10/26 00:27:04;;;;;;;2.05;1.00;;;;;;;18.11;61.14;99789.47;5023783;28;21527;-37
2023/10/26 00:29:31;;;;;;;1.13;0.93;;;;;;;18.10;60.66;99785.13;5020072;28;20060;-37
2023/10/26 00:31:58;;;;;;;1.38;0.80;;;;;;;18.09;60.59;99791.50;5025775;28;20057;-37
2023/10/26 00:34:24;;;;;;;1.13;0.88;;;;;;;18.08;60.45;99787.13;5022074;28;20132;-37
2023/10/26 00:36:51;;;;;;;1.33;0.70;;;;;;;18.08;60.58;99787.13;5024600;28;20041;-37
2023/10/26 00:39:17;;;;;;;1.27;1.00;;;;;;;18.07;60.53;99785.47;5024288;28;20327;-37
2023/10/26 00:41:44;;;;;;;1.20;1.10;;;;;;;18.07;60.46;99787.31;5024231;28;20057;-37
2023/10/26 00:44:11;;;;;;;1.10;0.98;;;;;;;18.07;60.64;99792.69;5026266;28;20099;-37
2023/10/26 00:46:37;;;;;;;1.25;1.00;;;;;;;18.06;60.80;99799.91;5021526;28;20053;-37
2023/10/26 00:49:04;;;;;;;1.38;1.17;;;;;;;18.06;60.56;99797.22;5023315;28;20136;-37
2023/10/26 00:51:30;;;;;;;1.13;0.80;;;;;;;18.05;61.23;99811.66;5025757;28;20041;-37
2023/10/26 00:53:57;;;;;;;1.10;1.00;;;;;;;18.04;60.42;99809.97;5023538;28;20041;-37
2023/10/26 00:56:25;;;;;;;1.27;0.98;;;;;;;18.04;60.85;99811.81;5025867;28;20056;-37
2023/10/26 00:58:53;;;;;;;1.25;0.80;;;;;;;18.03;60.90;99816.34;5025959;28;20224;-37
2023/10/26 01:01:20;;;;;;;1.48;0.90;;;;;;;18.03;60.95;99823.56;5022604;28;20132;-37
2023/10/26 01:03:47;;;;;;;1.10;0.77;;;;;;;18.02;60.88;99812.00;5021501;28;20136;-37
2023/10/26 01:06:14;;;;;;;0.95;0.85;;;;;;;18.03;60.46;99823.56;5019408;28;20620;-37
2023/10/26 01:08:41;;;;;;;0.68;0.68;;;;;;;18.01;60.79;99826.44;5017716;28;20074;-37
2023/10/26 01:11:07;;;;;;;0.77;0.60;;;;;;;18.01;60.74;99823.75;5019832;28;20046;-37
2023/10/26 01:13:34;;;;;;;1.52;1.15;;;;;;;18.01;60.79;99823.75;5020600;28;20100;-37
2023/10/26 01:16:04;;;;;;;1.25;0.80;;;;;;;18.00;60.67;99822.06;5019412;28;20103;-37
2023/10/26 01:18:31;;;;;;;1.45;0.90;;;;;;;18.00;60.54;99816.69;5022046;28;20042;-37
2023/10/26 01:20:58;;;;;;;1.73;0.90;;;;;;;17.98;60.50;99822.25;5023514;28;20137;-37
2023/10/26 01:23:25;;;;;;;1.52;1.00;;;;;;;17.98;60.96;99813.38;5019182;28;20052;-37
2023/10/26 01:25:54;;;;;;;1.10;1.00;;;;;;;17.97;61.14;99825.13;5016873;28;20103;-37
2023/10/26 01:28:21;;;;;;;1.15;1.05;;;;;;;17.98;60.73;99824.09;5021070;28;20045;-37
2023/10/26 01:30:48;;;;;;;1.20;0.70;;;;;;;17.96;60.74;99826.09;5021842;28;20349;-37
2023/10/26 01:33:15;;;;;;;0.80;0.80;;;;;;;17.96;60.49;99832.28;5023391;28;20381;-37
2023/10/26 01:35:44;;;;;;;1.00;0.90;;;;;;;17.96;60.93;99828.78;5024352;28;20180;-37
2023/10/26 01:38:12;;;;;;;0.82;0.82;;;;;;;17.96;60.79;99834.16;5024676;28;20052;-37
2023/10/26 01:40:38;;;;;;;1.00;0.90;;;;;;;17.94;60.63;99837.00;5025821;28;20085;-37
2023/10/26 01:43:05;;;;;;;1.02;0.80;;;;;;;17.94;60.78;99837.00;5025209;28;20065;-37
2023/10/26 01:45:32;;;;;;;1.05;0.90;;;;;;;17.93;60.93;99835.34;5022293;28;20049;-37
2023/10/26 01:48:00;;;;;;;0.70;0.70;;;;;;;17.93;61.07;99840.72;5024350;28;20048;-37
2023/10/26 01:50:26;;;;;;;0.95;0.93;;;;;;;17.93;61.12;99834.50;5022284;28;20092;-37
2023/10/26 01:52:53;;;;;;;1.40;1.00;;;;;;;17.93;60.76;99830.00;5027445;28;20049;-37
2023/10/26 01:55:20;;;;;;;2.28;0.80;;;;;;;17.92;61.18;99824.78;5023894;28;20108;-37
2023/10/26 01:57:46;;;;;;;1.17;0.90;;;;;;;17.92;61.02;99828.31;5024790;28;20072;-37
2023/10/26 02:00:13;;;;;;;1.35;0.80;;;;;;;17.92;60.56;99822.94;5023289;28;20144;-37
2023/10/26 02:02:41;;;;;;;0.95;0.85;;;;;;;17.92;61.25;99806.84;5026314;28;20395;-37
2023/10/26 02:05:08;;;;;;;1.30;1.05;;;;;;;17.91;60.75;99812.41;5022672;28;20050;-37
2023/10/26 02:07:35;;;;;;;1.20;1.00;;;;;;;17.90;60.57;99805.38;5026053;28;20099;-37
2023/10/26 02:10:01;;;;;;;1.63;0.85;;;;;;;17.91;60.68;99804.38;5025457;28;20113;-37
2023/10/26 02:12:28;;;;;;;1.23;1.00;;;;;;;17.91;60.83;99809.72;5021628;28;20138;-37
2023/10/26 02:14:54;;;;;;;1.10;0.90;;;;;;;17.91;61.08;99812.41;5022105;28;20262;-36
2023/10/26 02:17:21;;;;;;;1.15;1.05;;;;;;;17.90;61.03;99811.56;5026183;28;20053;-37
2023/10/26 02:19:47;;;;;;;1.20;1.10;;;;;;;17.90;60.63;99808.06;5021623;28;20054;-36
2023/10/26 02:22:14;;;;;;;0.70;0.70;;;;;;;17.89;60.91;99801.00;5024395;28;20162;-36
2023/10/26 02:24:41;;;;;;;1.20;1.10;;;;;;;17.90;60.97;99811.56;5026874;28;20060;-37
2023/10/26 02:27:08;;;;;;;1.48;1.13;;;;;;;17.89;60.83;99801.88;5028356;28;20076;-36
2023/10/26 02:29:35;;;;;;;1.25;1.05;;;;;;;17.88;60.47;99800.19;5027149;28;20111;-36
2023/10/26 02:32:02;;;;;;;1.10;1.00;;;;;;;17.87;60.97;99803.88;5027086;28;20141;-36
2023/10/26 02:34:28;;;;;;;1.92;1.20;;;;;;;17.87;60.50;99795.00;5027393;28;20053;-36
2023/10/26 02:36:57;;;;;;;1.20;1.10;;;;;;;17.86;60.70;99802.22;5025658;28;20053;-36
2023/10/26 02:39:24;;;;;;;1.10;0.90;;;;;;;17.86;60.72;99806.75;5023582;28;20410;-36
2023/10/26 02:41:51;;;;;;;1.25;1.10;;;;;;;17.85;60.84;99810.41;5027162;28;20081;-36
2023/10/26 02:44:18;;;;;;;1.17;1.05;;;;;;;17.84;61.22;99816.81;5028541;28;20057;-36
2023/10/26 02:46:45;;;;;;;1.88;1.10;;;;;;;17.83;60.71;99823.19;5027622;28;20095;-36
2023/10/26 02:49:11;;;;;;;1.27;1.17;;;;;;;17.82;60.73;99819.66;5025376;28;20717;-36
2023/10/26 02:51:38;;;;;;;1.48;1.00;;;;;;;17.80;61.00;99816.31;5026310;28;20123;-37
2023/10/26 02:54:04;;;;;;;1.25;1.02;;;;;;;17.81;60.75;99814.47;5028417;28;20134;-36
2023/10/26 02:56:31;;;;;;;1.92;1.10;;;;;;;17.80;60.58;99807.44;5028142;28;20049;-37
2023/10/26 02:58:57;;;;;;;2.80;1.35;;;;;;;17.78;61.01;99799.59;5032371;28;20415;-36
2023/10/26 03:01:24;;;;;;;1.08;0.98;;;;;;;17.78;60.78;99794.25;5025113;28;20446;-37
2023/10/26 03:03:51;;;;;;;1.38;1.15;;;;;;;17.78;60.98;99798.75;5025434;28;20052;-36
2023/10/26 03:06:18;;;;;;;1.35;0.95;;;;;;;17.76;61.00;99794.41;5021902;28;20135;-37
2023/10/26 03:08:44;;;;;;;0.88;0.88;;;;;;;17.76;60.78;99785.53;5024294;28;20050;-37
2023/10/26 03:11:11;;;;;;;1.25;0.98;;;;;;;17.74;60.75;99783.03;5018984;28;20544;-37
2023/10/26 03:13:38;;;;;;;2.03;1.15;;;;;;;17.74;61.07;99788.41;5039332;28;20064;-37
2023/10/26 03:16:07;;;;;;;1.88;1.45;;;;;;;17.73;61.05;99792.06;5023565;28;20144;-37
2023/10/26 03:18:36;;;;;;;1.35;1.00;;;;;;;17.73;60.74;99792.06;5022461;28;20429;-37
2023/10/26 03:21:03;;;;;;;1.38;1.27;;;;;;;17.73;61.13;99793.91;5024612;28;20046;-37
2023/10/26 03:23:30;;;;;;;1.30;1.20;;;;;;;17.71;61.00;99796.75;5023219;28;20054;-37
2023/10/26 03:25:57;;;;;;;2.25;1.00;;;;;;;17.71;60.82;99791.38;5021683;28;20111;-37
2023/10/26 03:28:24;;;;;;;1.63;1.20;;;;;;;17.71;61.17;99783.34;5022774;28;20053;-37
2023/10/26 03:30:50;;;;;;;1.55;1.20;;;;;;;17.70;60.88;99776.31;5022737;28;20658;-37
2023/10/26 03:33:17;;;;;;;1.45;1.20;;;;;;;17.71;60.58;99771.78;5025562;28;20141;-37
2023/10/26 03:35:43;;;;;;;1.05;0.95;;;;;;;17.68;60.78;99766.78;5028053;28;20141;-37
2023/10/26 03:38:10;;;;;;;1.88;1.55;;;;;;;17.68;61.08;99772.16;5031213;28;20123;-37
2023/10/26 03:40:36;;;;;;;1.45;1.25;;;;;;;17.68;61.00;99772.97;5024156;28;20083;-37
2023/10/26 03:43:03;;;;;;;2.05;1.63;;;;;;;17.67;60.76;99771.31;5026979;28;20068;-37
2023/10/26 03:45:31;;;;;;;2.30;1.05;;;;;;;17.65;61.31;99770.69;5027324;28;20176;-37
2023/10/26 03:47:58;;;;;;;1.25;1.15;;;;;;;17.66;61.12;99785.72;5022649;28;20046;-37
2023/10/26 03:50:24;;;;;;;1.58;1.30;;;;;;;17.65;60.82;99777.88;5025670;28;20051;-37
2023/10/26 03:52:51;;;;;;;1.27;1.17;;;;;;;17.65;60.72;99776.03;5030143;28;20119;-37
2023/10/26 03:55:17;;;;;;;1.13;1.02;;;;;;;17.64;60.76;99777.03;5026312;28;20046;-37
2023/10/26 03:57:48;;;;;;;1.52;1.42;;;;;;;17.62;61.17;99773.69;5026060;28;20394;-37
2023/10/26 04:00:15;;;;;;;1.25;1.15;;;;;;;17.62;60.70;99779.06;5022878;28;20088;-37
2023/10/26 04:02:42;;;;;;;1.33;1.10;;;;;;;17.62;60.93;99778.22;5027804;28;20076;-37
2023/10/26 04:05:10;;;;;;;1.20;1.10;;;;;;;17.60;60.75;99778.38;5016919;28;20434;-37
2023/10/26 04:07:38;;;;;;;1.10;1.00;;;;;;;17.60;60.85;99777.56;5021763;28;20049;-37
2023/10/26 04:10:07;;;;;;;1.85;1.05;;;;;;;17.59;61.23;99774.03;5017448;28;20046;-37
2023/10/26 04:12:34;;;;;;;1.10;1.00;;;;;;;17.59;61.11;99784.75;5017302;28;20089;-37
2023/10/26 04:15:01;;;;;;;1.88;1.45;;;;;;;17.59;61.01;99776.72;5024343;28;20046;-37
2023/10/26 04:17:28;;;;;;;1.27;1.00;;;;;;;17.58;60.76;99783.09;5021781;28;20052;-37
2023/10/26 04:19:56;;;;;;;1.52;1.40;;;;;;;17.57;60.96;99776.09;5020476;28;20060;-37
2023/10/26 04:22:24;;;;;;;1.55;1.38;;;;;;;17.57;61.06;99773.41;5019512;28;20057;-37
2023/10/26 04:24:50;;;;;;;1.95;1.55;;;;;;;17.56;60.90;99771.72;5020895;28;20157;-37
2023/10/26 04:27:17;;;;;;;1.70;1.50;;;;;;;17.56;60.92;99766.34;5021039;28;20079;-37
2023/10/26 04:29:44;;;;;;;2.13;1.50;;;;;;;17.55;60.72;99764.69;5018394;28;20157;-37
2023/10/26 04:32:11;;;;;;;2.40;1.48;;;;;;;17.55;60.98;99761.19;5022215;28;20422;-37
2023/10/26 04:34:43;;;;;;;1.65;1.35;;;;;;;17.55;60.78;99750.47;5016627;28;20048;-37
2023/10/26 04:37:11;;;;;;;1.67;1.45;;;;;;;17.54;61.19;99749.63;5020670;28;20045;-37
2023/10/26 04:39:41;;;;;;;1.40;1.30;;;;;;;17.54;61.03;99751.50;5024638;28;20077;-37
2023/10/26 04:42:07;;;;;;;1.67;1.33;;;;;;;17.52;60.67;99751.66;5025708;28;20286;-37
2023/10/26 04:44:34;;;;;;;1.50;1.10;;;;;;;17.51;60.67;99750.00;5021155;28;20049;-37
2023/10/26 04:47:01;;;;;;;2.47;1.30;;;;;;;17.51;60.80;99756.19;5019494;28;20100;-37
2023/10/26 04:49:27;;;;;;;3.33;1.45;;;;;;;17.51;60.54;99747.31;5021631;28;20077;-37
2023/10/26 04:51:54;;;;;;;2.13;1.77;;;;;;;17.50;60.72;99745.66;5020999;28;20354;-37
2023/10/26 04:54:21;;;;;;;1.75;1.55;;;;;;;17.48;60.63;99750.34;5022650;28;20056;-37
2023/10/26 04:56:47;;;;;;;1.60;1.30;;;;;;;17.47;60.78;99743.31;5025551;28;20053;-37
2023/10/26 04:59:14;;;;;;;2.15;1.40;;;;;;;17.47;61.08;99743.31;5023925;28;20046;-37
2023/10/26 05:01:40;;;;;;;1.20;1.10;;;;;;;17.47;60.95;99743.31;5022819;28;20057;-37
2023/10/26 05:04:10;;;;;;;1.50;1.40;;;;;;;17.46;60.94;99747.00;5022673;28;20056;-37
2023/10/26 05:06:37;;;;;;;1.50;1.40;;;;;;;17.47;61.18;99754.03;5026354;28;20053;-37
2023/10/26 05:09:05;;;;;;;2.28;1.42;;;;;;;17.46;61.00;99753.19;5027487;28;20038;-37
2023/10/26 05:11:33;;;;;;;1.83;1.40;;;;;;;17.45;61.00;99740.81;5021600;28;20046;-37
2023/10/26 05:14:00;;;;;;;1.50;1.40;;;;;;;17.46;61.11;99739.81;5018897;28;20112;-37
2023/10/26 05:16:27;;;;;;;1.52;1.30;;;;;;;17.45;60.73;99735.47;5020144;28;20053;-37
2023/10/26 05:18:54;;;;;;;2.20;1.80;;;;;;;17.45;61.07;99735.47;5021578;28;20084;-37
2023/10/26 05:21:20;;;;;;;2.25;1.55;;;;;;;17.45;60.74;99737.31;5023327;28;20141;-37
2023/10/26 05:23:47;;;;;;;1.83;1.38;;;;;;;17.44;61.10;99741.81;5017618;28;20057;-37
2023/10/26 05:26:14;;;;;;;2.20;1.65;;;;;;;17.45;61.26;99748.03;5017933;28;20049;-37
2023/10/26 05:28:40;;;;;;;2.00;1.63;;;;;;;17.48;61.20;99755.69;5025047;28;20115;-37
2023/10/26 05:31:07;;;;;;;2.78;1.80;;;;;;;17.54;60.95;99749.63;5027073;28;20104;-37
2023/10/26 05:33:33;;;;;;;1.70;1.50;;;;;;;17.65;60.48;99757.28;5023397;28;20045;-37
2023/10/26 05:36:00;;;;;;;3.40;1.63;;;;;;;17.80;60.34;99753.84;5022993;28;20703;-37
2023/10/26 05:38:27;;;;;;;2.25;1.70;;;;;;;17.92;60.62;99757.78;5018645;28;20346;-37
2023/10/26 05:40:55;;;;;;;2.60;1.95;;;;;;;18.04;59.94;99756.34;5020406;28;20130;-37
2023/10/26 05:43:22;;;;;;;2.17;1.50;;;;;;;18.17;59.33;99761.94;5016559;28;20096;-38
2023/10/26 05:45:49;;;;;;;1.30;1.20;;;;;;;18.30;59.68;99764.00;5023625;28;20459;-38
2023/10/26 05:48:18;;;;;;;1.50;1.33;;;;;;;18.41;59.45;99754.66;5021257;28;20436;-38
2023/10/26 05:50:45;;;;;;;1.67;1.58;;;;;;;18.51;59.24;99752.56;5018665;28;20143;-38
2023/10/26 05:53:12;;;;;;;1.90;1.70;;;;;;;18.63;58.75;99751.09;5023269;28;20120;-38
2023/10/26 05:55:39;;;;;;;2.25;1.80;;;;;;;18.71;58.37;99737.59;5019850;28;20147;-38
2023/10/26 05:58:08;;;;;;;1.85;1.63;;;;;;;18.81;58.56;99741.84;5017879;28;20077;-38
2023/10/26 06:00:35;;;;;;;2.15;1.67;;;;;;;18.89;58.17;99736.38;5021798;28;20045;-37
2023/10/26 06:03:02;;;;;;;2.30;1.85;;;;;;;18.98;57.69;99744.19;5023444;28;20129;-38
2023/10/26 06:05:29;;;;;;;2.08;1.80;;;;;;;19.06;58.09;99734.34;5019070;28;20303;-38
2023/10/26 06:07:55;;;;;;;1.63;1.42;;;;;;;19.13;58.00;99744.13;5023065;28;20053;-38
2023/10/26 06:10:22;;;;;;;2.88;1.92;;;;;;;19.19;57.65;99751.47;5020797;28;20045;-38
2023/10/26 06:12:48;;;;;;;1.67;1.58;;;;;;;19.27;57.17;99763.97;5021336;28;20144;-38
2023/10/26 06:15:16;;;;;;;2.60;1.83;;;;;;;19.33;57.49;99765.03;5018872;28;20077;-38
2023/10/26 06:17:42;;;;;;;2.03;1.80;;;;;;;19.38;56.67;99765.34;5020422;28;20365;-38
2023/10/26 06:20:09;;;;;;;1.98;1.40;;;;;;;19.43;56.33;99760.22;5017951;28;20038;-38
2023/10/26 06:22:38;;;;;;;2.70;1.88;;;;;;;19.47;56.96;99753.44;5019170;28;20144;-38
2023/10/26 06:25:05;;;;;;;2.85;1.90;;;;;;;19.51;57.09;99753.91;5019242;28;20057;-38
2023/10/26 06:27:32;;;;;;;2.10;1.63;;;;;;;19.52;56.24;99760.94;5020993;28;20425;-38
2023/10/26 06:29:58;;;;;;;2.05;1.70;;;;;;;19.52;56.72;99750.19;5019633;28;20154;-38
2023/10/26 06:32:25;;;;;;;2.83;1.63;;;;;;;19.49;56.89;99749.53;5020099;28;20056;-38
2023/10/26 06:34:52;;;;;;;2.97;2.10;;;;;;;19.47;56.38;99753.44;5021708;28;20452;-38
2023/10/26 06:37:18;;;;;;;2.45;1.73;;;;;;;19.43;56.67;99749.47;5022722;28;20527;-38
2023/10/26 06:39:45;;;;;;;2.63;2.13;;;;;;;19.40;56.82;99753.34;5024201;28;20065;-37
2023/10/26 06:42:12;;;;;;;4.32;2.10;;;;;;;19.35;56.87;99753.09;5020015;28;20069;-37
2023/10/26 06:44:40;;;;;;;2.28;2.03;;;;;;;19.28;56.77;99746.81;5016285;28;20057;-38
2023/10/26 06:47:07;;;;;;;2.15;1.88;;;;;;;19.23;56.52;99746.53;5022233;28;20430;-37
2023/10/26 06:49:33;;;;;;;2.13;1.90;;;;;;;19.18;56.65;99743.59;5014790;28;20038;-38
2023/10/26 06:52:01;;;;;;;2.13;1.88;;;;;;;19.12;57.03;99745.16;5016915;28;20049;-37
2023/10/26 06:54:28;;;;;;;2.30;2.10;;;;;;;19.09;57.21;99750.91;5011693;28;20053;-37
2023/10/26 06:56:55;;;;;;;3.38;2.05;;;;;;;19.05;57.53;99743.41;5020068;28;20046;-37
2023/10/26 06:59:21;;;;;;;1.92;1.67;;;;;;;19.01;56.94;99740.25;5021203;28;20087;-37
2023/10/26 07:01:48;;;;;;;2.38;2.17;;;;;;;18.97;57.61;99741.66;5020083;28;20084;-37
2023/10/26 07:04:35;;;;;;;2.17;1.75;;;;;;;18.95;57.57;99741.84;5019285;28;20049;-37
2023/10/26 07:07:02;;;;;;;2.30;1.85;;;;;;;18.93;57.56;99748.41;5016892;28;20132;-37
2023/10/26 07:09:29;;;;;;;2.67;1.95;;;;;;;18.90;57.44;99749.66;5017928;28;20389;-37
2023/10/26 07:11:56;;;;;;;2.35;1.80;;;;;;;18.87;57.53;99749.19;5018246;28;20053;-37
2023/10/26 07:14:23;;;;;;;3.03;1.83;;;;;;;18.83;57.78;99751.41;5018360;28;20058;-37
2023/10/26 07:16:50;;;;;;;2.47;1.83;;;;;;;18.81;57.55;99750.75;5022844;28;20053;-37
2023/10/26 07:19:16;;;;;;;2.53;1.70;;;;;;;18.79;57.29;99758.16;5022027;28;20370;-37
2023/10/26 07:21:44;;;;;;;2.33;1.95;;;;;;;18.78;57.73;99753.81;5022772;28;20138;-37
2023/10/26 07:24:11;;;;;;;2.38;1.90;;;;;;;18.78;57.26;99755.66;5023461;28;20103;-37
2023/10/26 07:26:38;;;;;;;2.30;2.10;;;;;;;18.74;57.84;99758.72;5022103;28;20425;-37
2023/10/26 07:29:05;;;;;;;2.28;1.88;;;;;;;18.73;57.30;99759.75;5024483;28;20041;-37
2023/10/26 07:31:31;;;;;;;2.13;1.92;;;;;;;18.71;57.50;99756.41;5022380;28;20080;-37
2023/10/26 07:33:58;;;;;;;2.40;1.70;;;;;;;18.70;57.26;99759.28;5020897;28;20123;-37
2023/10/26 07:36:26;;;;;;;2.33;1.92;;;;;;;18.69;57.78;99757.56;5021109;28;20051;-37
2023/10/26 07:38:53;;;;;;;3.80;2.00;;;;;;;18.67;57.08;99747.00;5021060;28;20037;-37
2023/10/26 07:41:40;;;;;;;2.05;1.80;;;;;;;18.64;57.66;99749.22;5029265;28;20053;-37
2023/10/26 07:44:26;;;;;;;2.35;1.95;;;;;;;18.59;57.45;99755.16;5025360;28;20053;-37
2023/10/26 07:46:54;;;;;;;2.22;2.03;;;;;;;18.55;57.78;99756.53;5025479;28;20056;-38
2023/10/26 07:49:20;;;;;;;2.33;2.05;;;;;;;18.53;57.75;99749.69;5022865;28;20408;-37
2023/10/26 07:51:49;;;;;;;2.00;1.80;;;;;;;18.49;57.90;99752.75;5019056;28;20185;-37
2023/10/26 07:54:17;;;;;;;2.05;1.83;;;;;;;18.46;58.12;99750.44;5018202;28;20049;-37
2023/10/26 07:56:44;;;;;;;3.17;2.05;;;;;;;18.40;58.32;99755.69;5021619;28;20084;-37
2023/10/26 07:59:10;;;;;;;2.15;1.67;;;;;;;18.34;58.17;99756.44;5022436;28;20083;-37
2023/10/26 08:01:37;;;;;;;2.90;2.10;;;;;;;18.38;58.44;99765.78;5024600;28;20071;-37
2023/10/26 08:04:04;;;;;;;3.13;2.33;;;;;;;18.45;58.20;99764.88;5028233;28;20099;-37
2023/10/26 08:06:31;;;;;;;2.65;2.10;;;;;;;18.53;57.71;99758.56;5021419;28;20045;-37
2023/10/26 08:08:58;;;;;;;2.25;2.05;;;;;;;18.59;58.05;99770.44;5025184;28;20100;-37
2023/10/26 08:11:25;;;;;;;2.00;1.73;;;;;;;18.65;57.90;99780.41;5023998;28;20053;-37
2023/10/26 08:13:52;;;;;;;2.08;1.85;;;;;;;18.65;57.77;99770.53;5025917;28;20396;-37
2023/10/26 08:16:19;;;;;;;2.83;2.13;;;;;;;18.66;57.81;99771.38;5030041;28;20085;-37
2023/10/26 08:19:05;;;;;;;2.22;2.03;;;;;;;18.66;57.83;99776.72;5025795;28;20065;-37
2023/10/26 08:21:32;;;;;;;1.70;1.60;;;;;;;18.63;57.55;99771.72;5025731;28;20088;-37
2023/10/26 08:23:59;;;;;;;1.95;1.65;;;;;;;18.63;57.97;99772.56;5026813;28;20067;-37
2023/10/26 08:26:25;;;;;;;2.33;1.70;;;;;;;18.70;57.69;99770.84;5024161;28;20091;-38
2023/10/26 08:28:52;;;;;;;1.98;1.70;;;;;;;18.77;57.18;99778.97;5027999;28;20365;-37
2023/10/26 08:31:38;;;;;;;1.98;1.63;;;;;;;18.83;57.26;99772.88;5026642;28;20065;-37
2023/10/26 08:34:07;;;;;;;2.08;1.75;;;;;;;18.89;57.72;99772.13;5024899;28;20050;-37
2023/10/26 08:36:33;;;;;;;1.63;1.42;;;;;;;18.94;57.01;99774.28;5027487;28;20057;-37
2023/10/26 08:39:00;;;;;;;1.67;1.58;;;;;;;18.98;56.82;99780.94;5024405;28;20108;-37
2023/10/26 08:41:32;;;;;;;1.75;1.42;;;;;;;19.01;57.21;99780.53;5024254;28;20132;-38
2023/10/26 08:44:00;;;;;;;2.75;1.85;;;;;;;19.02;56.47;99779.56;5022516;28;20143;-37
2023/10/26 08:46:28;;;;;;;2.53;1.60;;;;;;;19.03;57.05;99780.38;5027938;28;20046;-38
2023/10/26 08:48:57;;;;;;;2.60;1.90;;;;;;;19.01;56.45;99783.22;5026470;28;20078;-37
2023/10/26 08:51:26;;;;;;;1.77;1.65;;;;;;;18.99;56.39;99787.97;5023730;28;20401;-37
2023/10/26 08:53:53;;;;;;;2.53;2.05;;;;;;;18.95;56.40;99776.75;5023829;28;20112;-37
2023/10/26 08:56:23;;;;;;;2.63;1.95;;;;;;;18.94;56.89;99769.75;5025756;28;20329;-37
2023/10/26 08:58:54;;;;;;;1.77;1.60;;;;;;;18.91;57.24;99777.31;5023753;28;20058;-37
2023/10/26 09:01:21;;;;;;;1.85;1.65;;;;;;;18.89;56.96;99772.13;5021948;28;20100;-37
2023/10/26 09:03:48;;;;;;;1.83;1.42;;;;;;;18.88;56.94;99778.53;5026934;28;20055;-38
2023/10/26 09:06:15;;;;;;;3.03;1.70;;;;;;;18.86;56.43;99777.88;5018072;28;20057;-37
2023/10/26 09:08:42;;;;;;;1.67;1.50;;;;;;;18.87;56.84;99768.81;5021352;28;20073;-37
2023/10/26 09:11:22;;;;;;;1.88;1.63;;;;;;;18.86;57.35;99769.81;5026789;28;20041;-38
2023/10/26 09:13:50;;;;;;;3.97;1.45;;;;;;;18.87;56.87;99773.34;5024560;28;20490;-37
2023/10/26 09:16:16;;;;;;;1.80;1.42;;;;;;;18.84;56.57;99765.66;5024752;28;20056;-37
2023/10/26 09:18:53;;;;;;;1.90;1.65;;;;;;;18.81;56.92;99769.53;5024158;28;20136;-37
2023/10/26 09:21:19;;;;;;;1.73;1.55;;;;;;;18.83;56.97;99764.00;5024342;28;20054;-37
2023/10/26 09:23:46;;;;;;;1.85;1.58;;;;;;;18.82;56.89;99767.72;5025679;28;20060;-37
2023/10/26 09:26:13;;;;;;;2.08;1.55;;;;;;;18.81;57.14;99766.84;5026777;28;20467;-37
2023/10/26 09:28:56;;;;;;;1.80;1.50;;;;;;;18.80;57.08;99777.78;5025210;28;20049;-37
2023/10/26 09:31:23;;;;;;;2.03;1.65;;;;;;;18.82;56.92;99775.75;5028083;28;20072;-37
2023/10/26 09:33:50;;;;;;;1.60;1.50;;;;;;;18.81;57.24;99776.75;5021157;28;20057;-37
2023/10/26 09:36:20;;;;;;;1.73;1.52;;;;;;;18.81;56.88;99766.00;5026622;28;20085;-37
2023/10/26 09:38:47;;;;;;;2.28;1.88;;;;;;;18.79;56.81;99760.84;5023144;28;20127;-37
2023/10/26 09:41:18;;;;;;;1.92;1.73;;;;;;;18.79;56.91;99760.00;5023795;28;20425;-37
2023/10/26 09:43:46;;;;;;;2.30;1.77;;;;;;;18.79;57.37;99754.66;5027078;28;20135;-37
2023/10/26 09:46:14;;;;;;;2.03;1.77;;;;;;;18.78;56.63;99761.88;5036980;28;20341;-37
2023/10/26 09:48:42;;;;;;;2.40;2.17;;;;;;;18.79;56.37;99758.16;5022673;28;20433;-37
2023/10/26 09:51:10;;;;;;;1.85;1.60;;;;;;;18.78;57.30;99752.97;5021759;28;20425;-38
2023/10/26 09:53:39;;;;;;;1.98;1.50;;;;;;;18.77;56.67;99762.03;5020856;28;20052;-38
2023/10/26 09:56:14;;;;;;;2.58;1.88;;;;;;;18.72;57.09;99751.84;5024648;28;20045;-37
2023/10/26 09:58:41;;;;;;;2.00;1.70;;;;;;;18.67;56.98;99747.00;5022477;28;20063;-38
2023/10/26 10:01:35;;;;;;;1.75;1.50;;;;;;;18.63;57.10;99747.56;5025203;28;20532;-37
2023/10/26 10:04:04;;;;;;;;;;;;;;;18.61;57.43;99747.75;5022492;28;20046;-37
2023/10/26 10:06:52;;;;;;;1.90;1.70;;;;;;;18.61;57.46;99742.38;5021888;28;20236;-37
2023/10/26 10:09:25;;;;;;;2.50;1.85;;;;;;;18.57;57.45;99738.38;5023876;28;20053;-37
2023/10/26 10:12:27;;;;;;;2.72;1.85;;;;;;;18.50;57.55;99741.00;5024042;28;20057;-37
2023/10/26 10:14:57;;;;;;;2.05;1.60;;;;;;;18.48;57.94;99737.66;5015955;28;20057;-37
2023/10/26 10:17:43;;;;;;;2.50;1.80;;;;;;;18.46;57.80;99738.88;5024651;28;20080;-37
2023/10/26 10:20:17;;;;;;;2.20;1.70;;;;;;;18.46;57.70;99731.66;5024567;28;20038;-37
2023/10/26 10:22:48;;;;;;;2.38;1.65;;;;;;;18.49;57.93;99727.75;5023107;28;20099;-38
2023/10/26 10:25:19;;;;;;;2.45;1.85;;;;;;;18.53;58.13;99729.03;5024046;28;20092;-37
2023/10/26 10:27:49;;;;;;;3.13;2.15;;;;;;;18.57;57.70;99721.47;5022930;28;20050;-37
2023/10/26 10:30:20;;;;;;;2.20;1.52;;;;;;;18.63;57.44;99728.78;5024579;28;20044;-37
2023/10/26 10:32:49;;;;;;;2.10;1.55;;;;;;;18.65;57.51;99724.91;5020601;28;20585;-37
2023/10/26 10:35:21;;;;;;;2.78;1.70;;;;;;;18.67;57.53;99720.19;5020516;28;20042;-37
2023/10/26 10:38:13;;;;;;;2.80;2.13;;;;;;;18.70;57.46;99730.56;5022913;28;20049;-37
2023/10/26 10:40:41;;;;;;;3.30;2.20;;;;;;;18.73;57.37;99730.22;5023695;28;20060;-37
2023/10/26 10:43:08;;;;;;;2.42;1.67;;;;;;;18.76;57.37;99731.69;5025383;28;20046;-37
2023/10/26 10:45:35;;;;;;;2.33;1.90;;;;;;;18.78;57.15;99720.78;5020592;28;20104;-37
2023/10/26 10:48:04;;;;;;;2.15;1.80;;;;;;;18.80;57.19;99722.22;5029865;28;20100;-37
2023/10/26 10:50:31;;;;;;;2.08;1.73;;;;;;;18.83;56.94;99723.72;5025725;28;20049;-37
2023/10/26 10:52:58;;;;;;;3.10;1.85;;;;;;;18.84;57.10;99720.84;5027157;28;20650;-37
2023/10/26 10:55:25;;;;;;;2.00;1.45;;;;;;;18.87;57.33;99716.97;5023621;28;20395;-37
2023/10/26 10:57:53;;;;;;;1.50;1.40;;;;;;;18.89;57.34;99712.22;5030413;28;20406;-37
2023/10/26 11:00:20;;;;;;;2.78;1.60;;;;;;;18.91;57.12;99711.03;5026306;28;20049;-37
2023/10/26 11:02:49;;;;;;;2.10;1.70;;;;;;;18.93;57.42;99718.88;5027432;28;20132;-37
2023/10/26 11:05:18;;;;;;;2.97;2.10;;;;;;;18.95;57.26;99717.69;5025844;28;20061;-37
2023/10/26 11:07:47;;;;;;;5.18;4.40;;;;;;;18.96;57.15;99716.66;5030862;28;20134;-37
2023/10/26 11:10:14;;;;;;;4.82;3.13;;;;;;;18.97;56.17;99721.03;5029378;28;20045;-37
2023/10/26 11:12:49;;;;;;;3.00;2.47;;;;;;;18.97;56.45;99723.72;5026119;28;20057;-37
2023/10/26 11:15:17;;;;;;;4.35;2.97;;;;;;;18.98;56.73;99717.31;5028775;28;20128;-37
2023/10/26 11:17:44;;;;;;;4.10;2.90;;;;;;;18.99;56.67;99715.47;5026839;28;20478;-37
2023/10/26 11:20:37;;;;;;;4.90;3.97;;;;;;;18.97;55.63;99701.38;5024768;28;20046;-37
2023/10/26 11:23:09;;;;;;;4.15;2.53;;;;;;;18.99;55.98;99708.25;5031438;28;20049;-37
2023/10/26 11:25:36;;;;;;;3.40;2.60;;;;;;;19.00;56.11;99698.31;5028112;28;20143;-38
2023/10/26 11:28:03;;;;;;;3.33;3.03;;;;;;;18.99;56.72;99694.81;5029426;28;20057;-38
2023/10/26 11:30:44;;;;;;;5.05;3.40;;;;;;;19.01;56.57;99699.97;5025801;28;20687;-38
2023/10/26 11:33:28;;;;;;;4.50;3.08;;;;;;;19.05;56.22;99703.13;5026805;28;20461;-37
2023/10/26 11:35:55;;;;;;;4.70;3.38;;;;;;;19.07;56.56;99695.72;5025997;28;20500;-38
2023/10/26 11:38:22;;;;;;;6.53;2.65;;;;;;;19.10;56.51;99695.38;5026251;28;20372;-37